createdAt,value
2023-04-20T00:00:31.504Z,6.53
2023-04-20T00:02:59.595Z,4.53
2023-04-20T00:05:27.515Z,14.33
2023-04-20T00:07:55.825Z,4.10
2023-04-20T00:10:24.940Z,3.53
2023-04-20T00:12:52.743Z,4.77
2023-04-20T00:15:20.542Z,3.63
2023-04-20T00:17:48.676Z,4.40
2023-04-20T00:20:16.508Z,6.63
2023-04-20T00:22:44.288Z,8.67
2023-04-20T00:25:12.026Z,3.17
2023-04-20T00:27:41.133Z,4.37
2023-04-20T00:30:11.032Z,9.27
2023-04-20T00:32:38.819Z,8.03
2023-04-20T00:35:07.445Z,4.73
2023-04-20T00:37:35.106Z,3.43
2023-04-20T00:40:02.793Z,5.97
2023-04-20T00:42:30.608Z,5.93
2023-04-20T00:44:59.673Z,5.23
2023-04-20T00:47:27.431Z,8.63
2023-04-20T00:49:55.812Z,5.80
2023-04-20T00:52:23.619Z,5.23
2023-04-20T00:54:51.418Z,5.40
2023-04-20T00:57:24.137Z,4.77
2023-04-20T00:59:52.338Z,6.00
2023-04-20T01:02:21.691Z,4.57
2023-04-20T01:04:49.453Z,5.87
2023-04-20T01:07:17.356Z,6.57
2023-04-20T01:09:45.004Z,5.27
2023-04-20T01:12:12.732Z,4.13
2023-04-20T01:14:40.595Z,4.17
2023-04-20T01:17:08.458Z,3.53
2023-04-20T01:19:37.504Z,4.20
2023-04-20T01:22:06.104Z,2.90
2023-04-20T01:24:35.270Z,3.20
2023-04-20T01:27:02.963Z,2.50
2023-04-20T01:29:30.931Z,3.73
2023-04-20T01:31:58.643Z,7.30
2023-04-20T01:34:26.475Z,5.40
2023-04-20T01:36:54.231Z,5.10
2023-04-20T01:39:21.988Z,5.17
2023-04-20T01:41:51.508Z,2.77
2023-04-20T01:44:19.294Z,3.77
2023-04-20T01:46:46.973Z,3.20
2023-04-20T01:49:14.775Z,3.83
2023-04-20T01:51:42.635Z,4.73
2023-04-20T01:54:10.409Z,5.17
2023-04-20T01:56:38.153Z,6.10
2023-04-20T01:59:07.205Z,5.80
2023-04-20T02:01:35.226Z,3.67
2023-04-20T02:04:03.038Z,5.00
2023-04-20T02:06:31.315Z,2.77
2023-04-20T02:08:59.175Z,5.60
2023-04-20T02:11:26.939Z,5.23
2023-04-20T02:13:54.698Z,5.80
2023-04-20T02:16:23.902Z,8.03
2023-04-20T02:18:51.801Z,6.33
2023-04-20T02:21:20.064Z,3.60
2023-04-20T02:23:47.787Z,3.63
2023-04-20T02:26:16.808Z,8.30
2023-04-20T02:28:44.508Z,4.80
2023-04-20T02:31:12.254Z,3.37
2023-04-20T02:33:41.537Z,4.43
2023-04-20T02:36:09.931Z,3.73
2023-04-20T02:38:38.075Z,5.70
2023-04-20T02:41:06.255Z,3.27
2023-04-20T02:43:36.218Z,4.77
2023-04-20T02:46:04.073Z,4.20
2023-04-20T02:48:31.807Z,9.63
2023-04-20T02:51:01.233Z,7.50
2023-04-20T02:53:28.978Z,3.83
2023-04-20T02:55:56.693Z,6.43
2023-04-20T02:58:24.891Z,3.27
2023-04-20T03:00:53.106Z,11.73
2023-04-20T03:03:21.720Z,10.90
2023-04-20T03:05:49.976Z,4.63
2023-04-20T03:08:19.084Z,5.67
2023-04-20T03:10:46.839Z,5.87
2023-04-20T03:13:14.522Z,3.37
2023-04-20T03:15:42.357Z,7.63
2023-04-20T03:18:10.106Z,5.57
2023-04-20T03:20:37.879Z,4.50
2023-04-20T03:23:05.646Z,4.70
2023-04-20T03:25:34.773Z,6.93
2023-04-20T03:28:02.500Z,8.73
2023-04-20T03:30:30.453Z,5.93
2023-04-20T03:32:58.226Z,6.90
2023-04-20T03:35:25.977Z,4.90
2023-04-20T03:37:53.681Z,6.73
2023-04-20T03:40:21.616Z,10.17
2023-04-20T03:42:50.735Z,8.80
2023-04-20T03:45:18.448Z,7.63
2023-04-20T03:47:46.221Z,5.63
2023-04-20T03:50:13.911Z,5.03
2023-04-20T03:52:41.799Z,6.60
2023-04-20T03:55:10.601Z,4.97
2023-04-20T03:57:38.841Z,5.40
2023-04-20T04:00:10.792Z,3.63
2023-04-20T04:02:38.610Z,6.87
2023-04-20T04:05:07.313Z,3.73
2023-04-20T04:07:35.100Z,4.77
2023-04-20T04:10:04.969Z,5.00
2023-04-20T04:12:32.824Z,4.53
2023-04-20T04:15:00.566Z,9.67
2023-04-20T04:17:29.627Z,4.77
2023-04-20T04:19:57.482Z,3.77
2023-04-20T04:22:25.417Z,6.33
2023-04-20T04:24:54.434Z,7.07
2023-04-20T04:27:22.433Z,4.40
2023-04-20T04:29:50.189Z,9.77
2023-04-20T04:32:18.174Z,5.17
2023-04-20T04:34:48.292Z,6.37
2023-04-20T04:37:15.982Z,6.80
2023-04-20T04:39:43.675Z,7.03
2023-04-20T04:42:11.456Z,4.17
2023-04-20T04:44:40.082Z,5.77
2023-04-20T04:47:09.614Z,5.33
2023-04-20T04:49:37.369Z,6.13
2023-04-20T04:52:06.589Z,11.60
2023-04-20T04:54:34.308Z,7.40
2023-04-20T04:57:02.088Z,6.93
2023-04-20T04:59:29.825Z,7.70
2023-04-20T05:01:57.643Z,5.70
2023-04-20T05:04:25.697Z,5.43
2023-04-20T05:06:53.493Z,6.57
2023-04-20T05:09:22.533Z,5.20
2023-04-20T05:11:50.315Z,4.27
2023-04-20T05:14:18.111Z,5.27
2023-04-20T05:16:45.897Z,7.77
2023-04-20T05:19:13.655Z,6.30
2023-04-20T05:21:41.495Z,8.33
2023-04-20T05:24:09.398Z,4.93
2023-04-20T05:26:38.551Z,6.43
2023-04-20T05:29:06.294Z,6.07
2023-04-20T05:31:34.258Z,10.73
2023-04-20T05:34:02.920Z,4.57
2023-04-20T05:36:30.957Z,6.23
2023-04-20T05:38:58.709Z,9.27
2023-04-20T05:41:27.728Z,6.03
2023-04-20T05:43:57.059Z,8.77
2023-04-20T05:46:24.805Z,7.07
2023-04-20T05:48:52.464Z,4.50
2023-04-20T05:51:20.417Z,9.03
2023-04-20T05:53:48.151Z,5.90
2023-04-20T05:56:15.932Z,8.63
2023-04-20T05:58:44.216Z,6.67
2023-04-20T06:01:13.235Z,9.37
2023-04-20T06:03:41.163Z,7.07
2023-04-20T06:06:09.192Z,5.47
2023-04-20T06:08:36.931Z,9.63
2023-04-20T06:11:04.734Z,7.13
2023-04-20T06:13:32.415Z,9.87
2023-04-20T06:16:00.207Z,5.80
2023-04-20T06:18:29.361Z,9.67
2023-04-20T06:20:57.074Z,5.37
2023-04-20T06:23:24.826Z,7.97
2023-04-20T06:25:52.600Z,8.93
2023-04-20T06:28:20.366Z,13.50
2023-04-20T06:30:48.044Z,10.60
2023-04-20T06:33:17.337Z,7.70
2023-04-20T06:35:46.475Z,4.97
2023-04-20T06:38:14.227Z,7.60
2023-04-20T06:40:41.919Z,7.33
2023-04-20T06:43:09.655Z,6.77
2023-04-20T06:45:37.296Z,5.67
2023-04-20T06:48:05.291Z,11.60
2023-04-20T06:50:33.069Z,7.17
2023-04-20T06:53:03.964Z,5.93
2023-04-20T06:55:31.989Z,7.77
2023-04-20T06:57:59.646Z,6.67
2023-04-20T07:00:28.354Z,13.27
2023-04-20T07:02:56.193Z,7.13
2023-04-20T07:05:24.520Z,12.93
2023-04-20T07:07:52.290Z,12.70
2023-04-20T07:10:21.716Z,14.00
2023-04-20T07:12:49.496Z,9.53
2023-04-20T07:15:17.221Z,11.47
2023-04-20T07:17:45.010Z,6.27
2023-04-20T07:20:13.143Z,8.60
2023-04-20T07:22:41.316Z,7.37
2023-04-20T07:25:10.543Z,9.97
2023-04-20T07:27:41.068Z,12.47
2023-04-20T07:30:10.726Z,10.27
2023-04-20T07:32:39.127Z,9.47
2023-04-20T07:35:07.746Z,11.83
2023-04-20T07:37:35.993Z,8.33
2023-04-20T07:40:06.118Z,9.20
2023-04-20T07:42:34.371Z,8.23
2023-04-20T07:45:04.196Z,8.27
2023-04-20T07:47:32.062Z,7.60
2023-04-20T07:49:59.742Z,11.77
2023-04-20T07:52:27.543Z,11.97
2023-04-20T07:54:57.873Z,8.83
2023-04-20T07:57:25.593Z,6.73
2023-04-20T07:59:53.343Z,8.77
2023-04-20T08:02:22.687Z,11.43
2023-04-20T08:04:50.783Z,9.93
2023-04-20T08:07:18.776Z,7.70
2023-04-20T08:09:46.555Z,12.20
2023-04-20T08:12:14.274Z,11.13
2023-04-20T08:14:42.357Z,10.47
2023-04-20T08:17:10.057Z,9.00
2023-04-20T08:19:39.999Z,8.43
2023-04-20T08:22:09.354Z,8.43
2023-04-20T08:24:37.022Z,8.37
2023-04-20T08:27:04.760Z,9.17
2023-04-20T08:29:32.449Z,8.57
2023-04-20T08:32:00.210Z,9.60
2023-04-20T08:34:27.983Z,8.13
2023-04-20T08:36:57.112Z,10.27
2023-04-20T08:39:24.894Z,7.27
2023-04-20T08:41:53.968Z,5.60
2023-04-20T08:44:21.981Z,7.37
2023-04-20T08:46:50.395Z,6.13
2023-04-20T08:49:19.210Z,10.63
2023-04-20T08:51:47.684Z,5.17
2023-04-20T08:54:17.380Z,7.23
2023-04-20T08:56:46.557Z,9.27
2023-04-20T08:59:15.018Z,9.83
2023-04-20T09:01:43.322Z,7.30
2023-04-20T09:04:19.159Z,6.50
2023-04-20T09:06:47.788Z,7.90
2023-04-20T09:09:17.026Z,8.20
2023-04-20T09:11:45.015Z,7.73
2023-04-20T09:14:14.802Z,6.97
2023-04-20T09:16:50.695Z,7.30
2023-04-20T09:19:23.156Z,8.80
2023-04-20T09:21:52.355Z,6.60
2023-04-20T09:24:22.736Z,5.10
2023-04-20T09:26:50.520Z,7.27
2023-04-20T09:29:18.810Z,6.40
2023-04-20T09:31:46.667Z,5.13
2023-04-20T09:34:14.703Z,6.30
2023-04-20T09:36:43.795Z,8.20
2023-04-20T09:39:12.907Z,7.03
2023-04-20T09:41:43.153Z,7.07
2023-04-20T09:44:11.894Z,9.13
2023-04-20T09:46:40.602Z,8.00
2023-04-20T09:49:09.570Z,7.87
2023-04-20T09:51:38.513Z,6.93
2023-04-20T09:54:07.571Z,8.70
2023-04-20T09:56:36.240Z,12.63
2023-04-20T09:59:05.304Z,5.10
2023-04-20T10:01:34.835Z,8.40
2023-04-20T10:04:04.035Z,7.93
2023-04-20T10:06:34.334Z,8.13
2023-04-20T10:09:05.920Z,8.50
2023-04-20T10:11:49.103Z,9.00
2023-04-20T10:14:24.117Z,9.07
2023-04-20T10:17:01.017Z,6.40
2023-04-20T10:19:38.639Z,7.67
2023-04-20T10:22:07.174Z,4.87
2023-04-20T10:24:35.803Z,7.10
2023-04-20T10:27:04.200Z,6.13
2023-04-20T10:29:34.516Z,6.33
2023-04-20T10:32:04.095Z,7.23
2023-04-20T10:34:32.513Z,13.60
2023-04-20T10:37:10.312Z,11.00
2023-04-20T10:39:38.802Z,7.00
2023-04-20T10:42:06.536Z,7.80
2023-04-20T10:44:35.596Z,10.83
2023-04-20T10:47:03.366Z,10.03
2023-04-20T10:49:32.276Z,8.77
2023-04-20T10:52:00.107Z,5.43
2023-04-20T10:54:28.975Z,7.37
2023-04-20T10:56:57.118Z,5.53
2023-04-20T10:59:25.944Z,9.20
2023-04-20T11:01:55.759Z,5.30
2023-04-20T11:04:31.112Z,6.27
2023-04-20T11:07:05.969Z,4.60
2023-04-20T11:09:34.765Z,10.97
2023-04-20T11:12:04.304Z,4.57
2023-04-20T11:14:32.400Z,7.93
2023-04-20T11:17:01.878Z,7.57
2023-04-20T11:19:31.133Z,7.03
2023-04-20T11:21:59.227Z,7.57
2023-04-20T11:24:28.198Z,5.20
2023-04-20T11:26:56.792Z,6.73
2023-04-20T11:29:32.049Z,5.07
2023-04-20T11:32:02.668Z,7.47
2023-04-20T11:34:30.477Z,6.00
2023-04-20T11:36:59.564Z,6.63
2023-04-20T11:39:27.630Z,6.07
2023-04-20T11:41:56.587Z,6.60
2023-04-20T11:44:25.239Z,7.80
2023-04-20T11:46:54.428Z,8.60
2023-04-20T11:49:23.800Z,7.30
2023-04-20T11:51:52.166Z,5.97
2023-04-20T11:54:20.225Z,5.37
2023-04-20T11:56:47.991Z,6.27
2023-04-20T11:59:16.974Z,5.93
2023-04-20T12:01:44.947Z,8.03
2023-04-20T12:04:12.979Z,4.90
2023-04-20T12:06:42.441Z,8.30
2023-04-20T12:09:10.442Z,7.33
2023-04-20T12:11:38.237Z,5.13
2023-04-20T12:14:06.006Z,5.70
2023-04-20T12:16:33.823Z,5.60
2023-04-20T12:19:01.618Z,7.17
2023-04-20T12:21:29.372Z,7.10
2023-04-20T12:23:58.683Z,4.87
2023-04-20T12:26:36.917Z,6.97
2023-04-20T12:29:05.962Z,11.87
2023-04-20T12:31:33.744Z,7.20
2023-04-20T12:34:01.445Z,8.90
2023-04-20T12:36:29.323Z,6.47
2023-04-20T12:38:58.403Z,5.30
2023-04-20T12:41:26.081Z,5.13
2023-04-20T12:43:53.884Z,5.80
2023-04-20T12:46:21.615Z,5.47
2023-04-20T12:48:49.347Z,4.73
2023-04-20T12:51:17.129Z,12.77
2023-04-20T12:55:37.845Z,6.40
2023-04-20T12:58:06.101Z,7.73
2023-04-20T13:00:33.879Z,6.57
2023-04-20T13:03:01.956Z,8.20
2023-04-20T13:05:30.264Z,7.13
2023-04-20T13:07:58.026Z,10.13
2023-04-20T13:10:25.992Z,8.00
2023-04-20T13:12:55.998Z,6.07
2023-04-20T13:15:37.553Z,7.53
2023-04-20T13:18:07.026Z,6.70
2023-04-20T13:20:34.898Z,9.03
2023-04-20T13:23:03.834Z,6.33
2023-04-20T13:25:33.449Z,10.63
2023-04-20T13:28:03.354Z,6.70
2023-04-20T13:30:31.096Z,6.17
2023-04-20T13:32:58.880Z,6.87
2023-04-20T13:35:26.928Z,7.87
2023-04-20T13:37:54.751Z,8.93
2023-04-20T13:40:22.744Z,6.77
2023-04-20T13:42:50.537Z,6.00
2023-04-20T13:45:19.643Z,6.47
2023-04-20T13:47:47.522Z,7.00
2023-04-20T13:50:15.294Z,6.17
2023-04-20T13:52:43.047Z,7.90
2023-04-20T13:55:11.782Z,7.67
2023-04-20T13:57:39.572Z,7.97
2023-04-20T14:00:08.786Z,8.70
2023-04-20T14:02:37.873Z,6.47
2023-04-20T14:05:06.550Z,7.23
2023-04-20T14:07:34.405Z,9.13
2023-04-20T14:10:02.174Z,5.63
2023-04-20T14:12:29.952Z,6.97
2023-04-20T14:14:58.995Z,5.93
2023-04-20T14:17:27.199Z,6.57
2023-04-20T14:19:56.367Z,9.83
2023-04-20T14:22:24.070Z,5.80
2023-04-20T14:24:51.715Z,7.83
2023-04-20T14:27:19.457Z,7.13
2023-04-20T14:29:47.268Z,7.93
2023-04-20T14:32:15.003Z,6.63
2023-04-20T14:34:42.670Z,7.27
2023-04-20T14:37:11.790Z,5.57
2023-04-20T14:39:39.570Z,5.73
2023-04-20T14:42:07.717Z,6.13
2023-04-20T14:44:35.529Z,6.17
2023-04-20T14:47:03.375Z,6.20
2023-04-20T14:49:31.089Z,4.37
2023-04-20T14:51:58.808Z,4.37
2023-04-20T14:54:27.940Z,7.77
2023-04-20T14:56:55.858Z,4.53
2023-04-20T14:59:24.559Z,3.53
2023-04-20T15:02:01.756Z,5.73
2023-04-20T15:04:31.825Z,6.10
2023-04-20T15:06:59.735Z,7.10
2023-04-20T15:09:28.854Z,5.13
2023-04-20T15:11:56.924Z,5.87
2023-04-20T15:14:24.695Z,5.93
2023-04-20T15:16:53.385Z,7.60
2023-04-20T15:19:21.495Z,6.57
2023-04-20T15:21:49.268Z,7.87
2023-04-20T15:24:17.314Z,6.67
2023-04-20T15:26:46.538Z,5.93
2023-04-20T15:29:14.276Z,7.40
2023-04-20T15:31:45.389Z,5.97
2023-04-20T15:34:15.424Z,5.67
2023-04-20T15:36:43.642Z,4.97
2023-04-20T15:39:11.576Z,5.03
2023-04-20T15:41:39.429Z,7.10
2023-04-20T15:44:08.548Z,7.40
2023-04-20T15:46:37.121Z,5.57
2023-04-20T15:49:04.991Z,8.47
2023-04-20T15:51:32.713Z,7.83
2023-04-20T15:54:00.508Z,7.27
2023-04-20T15:56:28.209Z,10.57
2023-04-20T15:58:55.964Z,9.47
2023-04-20T16:01:25.151Z,5.40
2023-04-20T16:03:52.952Z,7.53
2023-04-20T16:06:20.949Z,6.40
2023-04-20T16:08:53.173Z,5.87
2023-04-20T16:11:21.806Z,6.80
2023-04-20T16:13:49.624Z,7.07
2023-04-20T16:16:17.449Z,7.87
2023-04-20T16:18:46.562Z,7.57
2023-04-20T16:21:15.320Z,7.27
2023-04-20T16:23:42.992Z,6.47
2023-04-20T16:26:10.778Z,7.50
2023-04-20T16:28:38.699Z,10.00
2023-04-20T16:31:06.731Z,4.73
2023-04-20T16:33:35.677Z,6.70
2023-04-20T16:36:05.151Z,6.80
2023-04-20T16:38:32.940Z,6.90
2023-04-20T16:41:00.654Z,5.40
2023-04-20T16:43:28.401Z,7.40
2023-04-20T16:45:56.148Z,5.37
2023-04-20T16:48:23.896Z,5.50
2023-04-20T16:50:51.861Z,8.20
2023-04-20T16:53:21.276Z,6.20
2023-04-20T16:55:48.987Z,6.07
2023-04-20T16:58:16.680Z,6.87
2023-04-20T17:00:44.402Z,9.37
2023-04-20T17:03:13.694Z,8.90
2023-04-20T17:05:42.310Z,6.93
2023-04-20T17:08:10.227Z,7.97
2023-04-20T17:10:39.416Z,5.77
2023-04-20T17:13:07.157Z,10.83
2023-04-20T17:15:34.951Z,10.03
2023-04-20T17:18:02.758Z,10.60
2023-04-20T17:20:30.622Z,10.80
2023-04-20T17:22:58.284Z,12.23
2023-04-20T17:25:26.050Z,13.03
2023-04-20T17:27:55.178Z,11.17
2023-04-20T17:30:22.860Z,9.37
2023-04-20T17:32:50.581Z,13.23
2023-04-20T17:35:18.325Z,10.33
2023-04-20T17:37:46.003Z,11.87
2023-04-20T17:40:13.906Z,11.67
2023-04-20T17:42:41.690Z,8.20
2023-04-20T17:45:11.703Z,10.70
2023-04-20T17:47:39.531Z,10.27
2023-04-20T17:50:08.695Z,12.77
2023-04-20T17:52:36.546Z,12.40
2023-04-20T17:55:04.601Z,11.70
2023-04-20T17:57:32.454Z,11.73
2023-04-20T18:00:00.202Z,11.67
2023-04-20T18:02:29.471Z,13.07
2023-04-20T18:04:59.663Z,12.23
2023-04-20T18:07:27.673Z,11.03
2023-04-20T18:09:55.550Z,10.07
2023-04-20T18:12:23.346Z,11.93
2023-04-20T18:14:51.044Z,13.83
2023-04-20T18:17:18.750Z,11.83
2023-04-20T18:19:48.147Z,11.77
2023-04-20T18:22:16.578Z,10.90
2023-04-20T18:24:44.373Z,10.40
2023-04-20T18:27:12.296Z,11.30
2023-04-20T18:29:39.949Z,13.70
2023-04-20T18:32:07.889Z,15.43
2023-04-20T18:34:36.759Z,11.67
2023-04-20T18:37:05.947Z,12.83
2023-04-20T18:39:33.597Z,13.33
2023-04-20T18:42:02.173Z,13.77
2023-04-20T18:44:30.251Z,11.93
2023-04-20T18:46:58.107Z,12.13
2023-04-20T18:49:25.891Z,13.37
2023-04-20T18:51:53.772Z,14.10
2023-04-20T18:54:22.847Z,12.90
2023-04-20T18:56:50.583Z,14.13
2023-04-20T18:59:18.591Z,13.10
2023-04-20T19:01:46.298Z,13.57
2023-04-20T19:04:14.194Z,16.00
2023-04-20T19:06:41.944Z,14.77
2023-04-20T19:09:09.666Z,11.87
2023-04-20T19:11:38.711Z,15.60
2023-04-20T19:14:06.524Z,15.00
2023-04-20T19:16:34.968Z,15.37
2023-04-20T19:19:03.821Z,14.10
2023-04-20T19:21:31.978Z,14.07
2023-04-20T19:23:59.784Z,13.90
2023-04-20T19:26:27.720Z,14.67
2023-04-20T19:28:58.184Z,15.10
2023-04-20T19:31:26.373Z,13.27
2023-04-20T19:33:55.928Z,9.43
2023-04-20T19:36:24.947Z,10.17
2023-04-20T19:38:52.693Z,10.37
2023-04-20T19:41:20.343Z,13.23
2023-04-20T19:43:48.012Z,13.27
2023-04-20T19:46:17.299Z,11.37
2023-04-20T19:48:45.359Z,10.87
2023-04-20T19:51:13.018Z,11.70
2023-04-20T19:53:40.956Z,13.03
2023-04-20T19:56:08.720Z,13.23
2023-04-20T19:58:36.545Z,11.63
2023-04-20T20:01:04.387Z,11.50
2023-04-20T20:03:33.618Z,13.93
2023-04-20T20:06:01.781Z,15.00
2023-04-20T20:08:29.925Z,11.53
2023-04-20T20:10:57.787Z,11.90
2023-04-20T20:13:26.348Z,9.87
2023-04-20T20:15:54.307Z,9.93
2023-04-20T20:18:22.175Z,10.70
2023-04-20T20:20:51.546Z,12.70
2023-04-20T20:23:19.315Z,13.83
2023-04-20T20:25:47.041Z,11.57
2023-04-20T20:28:15.848Z,13.40
2023-04-20T20:30:45.208Z,13.67
2023-04-20T20:33:13.188Z,13.93
2023-04-20T20:35:41.663Z,15.17
2023-04-20T20:38:10.900Z,12.73
2023-04-20T20:40:39.722Z,14.77
2023-04-20T20:43:07.487Z,17.87
2023-04-20T20:45:35.266Z,17.13
2023-04-20T20:48:03.069Z,13.77
2023-04-20T20:50:30.969Z,14.50
2023-04-20T20:52:58.664Z,13.50
2023-04-20T20:55:28.245Z,14.10
2023-04-20T20:57:55.949Z,17.57
2023-04-20T21:00:23.775Z,12.47
2023-04-20T21:02:52.438Z,17.03
2023-04-20T21:05:22.896Z,13.13
2023-04-20T21:07:50.816Z,15.00
2023-04-20T21:10:18.536Z,16.63
2023-04-20T21:12:47.639Z,11.73
2023-04-20T21:15:15.332Z,16.07
2023-04-20T21:17:43.097Z,19.13
2023-04-20T21:20:12.056Z,16.13
2023-04-20T21:22:40.123Z,10.47
2023-04-20T21:25:08.762Z,15.43
2023-04-20T21:27:36.539Z,19.73
2023-04-20T21:30:06.327Z,15.47
2023-04-20T21:32:33.996Z,16.43
2023-04-20T21:35:01.670Z,18.97
2023-04-20T21:37:29.376Z,13.83
2023-04-20T21:39:57.100Z,14.90
2023-04-20T21:42:24.840Z,17.83
2023-04-20T21:44:52.566Z,16.77
2023-04-20T21:47:21.644Z,16.30
2023-04-20T21:49:49.542Z,16.87
2023-04-20T21:52:17.288Z,16.90
2023-04-20T21:54:45.105Z,16.03
2023-04-20T21:57:13.219Z,18.03
2023-04-20T21:59:40.872Z,15.50
2023-04-20T22:02:08.617Z,14.47
2023-04-20T22:04:38.015Z,17.80
2023-04-20T22:07:05.760Z,15.57
2023-04-20T22:09:33.471Z,15.53
2023-04-20T22:12:02.041Z,16.83
2023-04-20T22:14:30.022Z,15.40
2023-04-20T22:16:57.766Z,20.07
2023-04-20T22:19:25.898Z,17.80
2023-04-20T22:21:55.172Z,16.77
2023-04-20T22:24:22.868Z,16.50
2023-04-20T22:26:50.536Z,17.10
2023-04-20T22:29:18.472Z,16.53
2023-04-20T22:31:46.399Z,19.33
2023-04-20T22:34:14.106Z,20.03
2023-04-20T22:36:41.859Z,19.77
2023-04-20T22:39:11.295Z,19.60
2023-04-20T22:41:39.000Z,17.50
2023-04-20T22:44:06.844Z,20.57
2023-04-20T22:46:34.652Z,17.27
2023-04-20T22:49:02.394Z,18.53
2023-04-20T22:51:30.054Z,18.93
2023-04-20T22:53:57.848Z,17.43
2023-04-20T22:56:29.109Z,18.27
2023-04-20T22:58:56.809Z,22.07
2023-04-20T23:01:24.571Z,20.17
2023-04-20T23:03:52.439Z,16.00
2023-04-20T23:06:22.100Z,16.33
2023-04-20T23:08:49.877Z,18.47
2023-04-20T23:11:17.598Z,19.13
2023-04-20T23:13:47.770Z,18.00
2023-04-20T23:16:15.607Z,17.63
2023-04-20T23:18:43.459Z,22.27
2023-04-20T23:21:11.217Z,16.23
2023-04-20T23:23:39.062Z,18.23
2023-04-20T23:26:06.785Z,21.13
2023-04-20T23:28:34.608Z,18.77
2023-04-20T23:31:03.745Z,21.70
2023-04-20T23:33:31.537Z,16.57
2023-04-20T23:35:59.593Z,24.03
2023-04-20T23:38:27.359Z,23.67
2023-04-20T23:40:55.074Z,25.33
2023-04-20T23:43:22.804Z,22.37
2023-04-20T23:45:50.703Z,20.57
2023-04-20T23:48:19.871Z,29.37
2023-04-20T23:50:49.560Z,32.33
2023-04-20T23:53:17.286Z,27.00
2023-04-20T23:55:48.417Z,26.93
2023-04-20T23:58:16.165Z,28.20
